Time;durP1;ratioP1;P1;durP2;ratioP2;P2;SDS_P1;SDS_P2;PMS_P1;PMS_P2;Temp;Humidity;BMP_temperature;BMP_pressure;BME280_temperature;BME280_humidity;BME280_pressure;Samples;Min_cycle;Max_cycle;Signal;HPM_P1;HPM_P2
2020/12/30 00:00:58;;;;;;;40.23;16.87;;;0.70;99.90;;;;;;5030920;28;20234;-71
2020/12/30 00:03:25;;;;;;;37.57;15.80;;;0.60;99.90;;;;;;5032138;28;20578;-71
2020/12/30 00:05:51;;;;;;;46.07;18.97;;;0.70;99.90;;;;;;5026327;28;20486;-70
2020/12/30 00:08:17;;;;;;;48.17;19.20;;;0.70;99.90;;;;;;5031154;28;20632;-70
2020/12/30 00:10:46;;;;;;;33.50;14.73;;;0.80;99.90;;;;;;5032257;28;20498;-72
2020/12/30 00:13:12;;;;;;;37.30;15.50;;;0.80;99.90;;;;;;5028485;28;21142;-71
2020/12/30 00:15:39;;;;;;;32.30;14.97;;;0.70;99.90;;;;;;5028044;28;20295;-73
2020/12/30 00:18:05;;;;;;;35.63;15.80;;;0.80;99.90;;;;;;5030729;28;20352;-70
2020/12/30 00:20:31;;;;;;;29.53;14.27;;;0.80;99.90;;;;;;5029536;28;20479;-70
2020/12/30 00:22:58;;;;;;;35.77;13.73;;;0.80;99.90;;;;;;5028546;28;20676;-70
2020/12/30 00:25:25;;;;;;;32.90;13.73;;;0.80;99.90;;;;;;5025858;28;20484;-70
2020/12/30 00:27:53;;;;;;;34.50;14.70;;;0.80;99.90;;;;;;5029223;28;20462;-70
2020/12/30 00:30:19;;;;;;;42.03;14.57;;;0.80;99.90;;;;;;5029694;28;20789;-73
2020/12/30 00:32:47;;;;;;;30.77;14.13;;;0.80;99.90;;;;;;5029775;28;20573;-71
2020/12/30 00:35:15;;;;;;;32.23;14.17;;;0.80;99.90;;;;;;5050901;23;20278;-75
2020/12/30 00:37:42;;;;;;;36.93;14.40;;;0.80;99.90;;;;;;5055156;28;20248;-74
2020/12/30 00:40:08;;;;;;;26.60;12.50;;;0.80;99.90;;;;;;5058816;28;20668;-75
2020/12/30 00:42:37;;;;;;;29.40;14.27;;;0.80;99.90;;;;;;5045468;28;20202;-74
2020/12/30 00:45:06;;;;;;;33.00;14.53;;;0.80;99.90;;;;;;5048980;28;20357;-74
2020/12/30 00:47:32;;;;;;;31.83;14.60;;;0.80;99.90;;;;;;5051577;28;20493;-75
2020/12/30 00:49:59;;;;;;;33.03;14.40;;;0.80;99.90;;;;;;5050407;28;20230;-74
2020/12/30 00:52:26;;;;;;;37.47;14.53;;;0.80;99.90;;;;;;5051504;28;20213;-75
2020/12/30 00:54:52;;;;;;;34.97;14.00;;;0.70;99.90;;;;;;5051601;28;20644;-75
2020/12/30 00:57:19;;;;;;;32.40;14.33;;;0.70;99.90;;;;;;5045375;28;20203;-75
2020/12/30 00:59:45;;;;;;;32.67;13.13;;;0.80;99.90;;;;;;5048954;28;20651;-75
2020/12/30 01:02:13;;;;;;;28.83;12.93;;;0.80;99.90;;;;;;5051349;28;20621;-75
2020/12/30 01:04:39;;;;;;;27.90;13.40;;;0.80;99.90;;;;;;5049327;28;20211;-74
2020/12/30 01:07:05;;;;;;;30.43;12.97;;;0.70;99.90;;;;;;5049046;28;21024;-75
2020/12/30 01:09:32;;;;;;;30.80;13.83;;;0.80;99.90;;;;;;5049719;28;20202;-74
2020/12/30 01:12:00;;;;;;;28.50;13.00;;;0.70;99.90;;;;;;5057581;28;20528;-74
2020/12/30 01:14:27;;;;;;;27.33;13.37;;;0.70;99.90;;;;;;5054578;28;20564;-75
2020/12/30 01:16:54;;;;;;;31.53;13.07;;;0.70;99.90;;;;;;5047601;28;20326;-75
2020/12/30 01:19:22;;;;;;;30.13;13.90;;;0.70;99.90;;;;;;5055790;28;20663;-75
2020/12/30 01:21:49;;;;;;;28.80;13.80;;;0.70;99.90;;;;;;5049728;28;20891;-76
2020/12/30 01:24:16;;;;;;;26.13;12.07;;;0.70;99.90;;;;;;5048088;28;20617;-76
2020/12/30 01:26:43;;;;;;;32.87;13.80;;;0.70;99.90;;;;;;5050642;28;20314;-76
2020/12/30 01:29:10;;;;;;;30.07;13.60;;;0.70;99.90;;;;;;5051823;28;20580;-76
2020/12/30 01:31:37;;;;;;;32.83;14.60;;;0.70;99.90;;;;;;5046759;28;20227;-76
2020/12/30 01:34:04;;;;;;;30.90;13.60;;;0.70;99.90;;;;;;5043347;28;20927;-74
2020/12/30 01:36:32;;;;;;;28.10;12.40;;;0.70;99.90;;;;;;5043166;28;20211;-75
2020/12/30 01:38:59;;;;;;;28.23;13.67;;;0.70;99.90;;;;;;5048987;28;20199;-75
2020/12/30 01:41:26;;;;;;;31.07;13.87;;;0.80;99.90;;;;;;5050094;28;20765;-75
2020/12/30 01:43:59;;;;;;;30.50;13.57;;;0.80;99.90;;;;;;5047117;28;20249;-75
2020/12/30 01:46:34;;;;;;;31.47;13.47;;;0.90;99.90;;;;;;5046520;28;20695;-75
2020/12/30 01:49:02;;;;;;;32.07;14.03;;;0.90;99.90;;;;;;5051226;28;20553;-75
2020/12/30 01:51:30;;;;;;;31.30;13.33;;;0.90;99.90;;;;;;5044454;28;20329;-75
2020/12/30 01:53:58;;;;;;;28.70;13.10;;;0.90;99.90;;;;;;5047676;28;20249;-75
2020/12/30 01:56:27;;;;;;;33.17;14.23;;;0.80;99.90;;;;;;5050356;28;20652;-75
2020/12/30 01:58:54;;;;;;;32.93;14.17;;;0.80;99.90;;;;;;5051707;28;20207;-75
2020/12/30 02:01:23;;;;;;;30.97;14.17;;;0.80;99.90;;;;;;5051058;28;20487;-75
2020/12/30 02:03:54;;;;;;;32.40;13.00;;;0.80;99.90;;;;;;5049764;28;20450;-75
2020/12/30 02:06:20;;;;;;;34.23;14.33;;;0.80;99.90;;;;;;5045308;28;20711;-75
2020/12/30 02:08:48;;;;;;;34.33;13.67;;;0.70;99.90;;;;;;5048362;28;20218;-74
2020/12/30 02:11:15;;;;;;;29.60;14.43;;;0.70;99.90;;;;;;5050065;28;20226;-74
2020/12/30 02:13:42;;;;;;;30.73;13.70;;;0.80;99.90;;;;;;5048296;28;20453;-75
2020/12/30 02:16:08;;;;;;;32.33;13.50;;;0.80;99.90;;;;;;5051245;28;20484;-75
2020/12/30 02:18:34;;;;;;;33.03;13.97;;;0.80;99.90;;;;;;5047945;28;20557;-75
2020/12/30 02:21:01;;;;;;;30.60;13.53;;;0.70;99.90;;;;;;5050291;28;21062;-75
2020/12/30 02:23:30;;;;;;;30.47;13.60;;;0.80;99.90;;;;;;5044978;28;20351;-74
2020/12/30 02:25:57;;;;;;;27.13;13.03;;;0.80;99.90;;;;;;5048534;28;20272;-75
2020/12/30 02:28:23;;;;;;;31.97;12.90;;;0.80;99.90;;;;;;5045946;28;21045;-74
2020/12/30 02:30:50;;;;;;;34.17;14.03;;;0.80;99.90;;;;;;5047566;28;20489;-75
2020/12/30 02:33:16;;;;;;;29.40;11.40;;;0.80;99.90;;;;;;5047080;28;20294;-75
2020/12/30 02:35:42;;;;;;;24.20;11.73;;;0.90;99.90;;;;;;5038493;28;20990;-75
2020/12/30 02:38:09;;;;;;;30.93;13.67;;;1.00;99.90;;;;;;5051817;28;21124;-75
2020/12/30 02:40:35;;;;;;;29.03;12.87;;;1.00;99.90;;;;;;5047931;28;20314;-75
2020/12/30 02:43:02;;;;;;;29.73;13.17;;;0.90;99.90;;;;;;5047659;28;20871;-74
2020/12/30 02:45:29;;;;;;;29.07;12.37;;;0.80;99.90;;;;;;5046709;28;20309;-75
2020/12/30 02:47:55;;;;;;;31.20;12.80;;;0.90;99.90;;;;;;5047396;28;20203;-75
2020/12/30 02:50:21;;;;;;;28.13;13.53;;;0.90;99.90;;;;;;5046317;28;20223;-75
2020/12/30 02:52:48;;;;;;;28.57;13.60;;;0.90;99.90;;;;;;5046923;28;20472;-75
2020/12/30 02:55:14;;;;;;;28.73;12.87;;;0.90;99.90;;;;;;5054752;28;20480;-75
2020/12/30 02:57:41;;;;;;;33.23;13.57;;;0.90;99.90;;;;;;5048447;28;20655;-75
2020/12/30 03:00:08;;;;;;;26.43;12.80;;;1.00;99.90;;;;;;5051079;28;20480;-75
2020/12/30 03:02:34;;;;;;;38.53;13.20;;;1.00;99.90;;;;;;5046386;28;20242;-75
2020/12/30 03:05:00;;;;;;;30.83;13.40;;;1.00;99.90;;;;;;5048851;28;20258;-74
2020/12/30 03:07:27;;;;;;;26.47;12.17;;;1.00;99.90;;;;;;5051455;28;20199;-75
2020/12/30 03:09:53;;;;;;;32.33;13.63;;;1.00;99.90;;;;;;5047317;28;20230;-74
2020/12/30 03:12:20;;;;;;;30.67;12.47;;;1.10;99.90;;;;;;5049157;28;20218;-75
2020/12/30 03:14:46;;;;;;;32.33;12.47;;;1.00;99.90;;;;;;5048704;28;20198;-75
2020/12/30 03:17:13;;;;;;;29.33;12.33;;;1.00;99.90;;;;;;5048442;28;20477;-74
2020/12/30 03:19:40;;;;;;;30.70;13.53;;;1.10;99.90;;;;;;5050072;28;20290;-75
2020/12/30 03:22:06;;;;;;;27.50;12.00;;;1.00;99.90;;;;;;5048749;28;20222;-75
2020/12/30 03:24:32;;;;;;;29.77;12.80;;;1.10;99.90;;;;;;5050657;28;20527;-75
2020/12/30 03:26:59;;;;;;;26.33;11.77;;;1.10;99.90;;;;;;5049715;28;20237;-75
2020/12/30 03:29:25;;;;;;;30.43;12.40;;;1.20;99.90;;;;;;5051926;28;20297;-75
2020/12/30 03:31:51;;;;;;;30.07;11.77;;;1.20;99.90;;;;;;5047397;28;20620;-74
2020/12/30 03:34:19;;;;;;;27.70;12.33;;;1.20;99.90;;;;;;5042844;28;20457;-75
2020/12/30 03:36:45;;;;;;;26.43;12.27;;;1.10;99.90;;;;;;5046253;28;20736;-74
2020/12/30 03:39:11;;;;;;;28.43;12.03;;;1.20;99.90;;;;;;5045982;28;20719;-74
2020/12/30 03:41:38;;;;;;;30.30;12.03;;;1.20;99.90;;;;;;5046527;28;20229;-76
2020/12/30 03:44:04;;;;;;;25.67;12.13;;;1.20;99.90;;;;;;5047256;28;20285;-76
2020/12/30 03:46:30;;;;;;;26.90;12.83;;;1.20;99.90;;;;;;5043899;28;20543;-76
2020/12/30 03:48:57;;;;;;;24.87;11.50;;;1.20;99.90;;;;;;5043788;28;20666;-76
2020/12/30 03:51:24;;;;;;;29.67;12.33;;;1.30;99.90;;;;;;5048865;28;20310;-76
2020/12/30 03:53:50;;;;;;;28.93;11.37;;;1.30;99.90;;;;;;5052050;28;20703;-76
2020/12/30 03:56:17;;;;;;;24.60;10.67;;;1.30;99.90;;;;;;5046814;28;20629;-76
2020/12/30 03:58:43;;;;;;;25.60;11.17;;;1.30;99.90;;;;;;5048697;28;20199;-76
2020/12/30 04:01:09;;;;;;;27.20;11.63;;;1.20;99.90;;;;;;5046563;28;20218;-76
2020/12/30 04:03:36;;;;;;;27.73;11.60;;;1.20;99.90;;;;;;5048258;28;20582;-76
2020/12/30 04:06:02;;;;;;;23.23;11.43;;;1.30;99.90;;;;;;5045965;28;20245;-76
2020/12/30 04:08:30;;;;;;;24.30;11.57;;;1.30;99.90;;;;;;5044214;28;20577;-76
2020/12/30 04:10:56;;;;;;;33.13;11.80;;;1.30;99.90;;;;;;5045446;28;20231;-76
2020/12/30 04:13:22;;;;;;;27.17;11.90;;;1.20;99.90;;;;;;5047089;28;20297;-76
2020/12/30 04:15:49;;;;;;;23.40;11.43;;;1.20;99.90;;;;;;5044311;28;20207;-76
2020/12/30 04:18:15;;;;;;;29.03;10.93;;;1.20;99.90;;;;;;5045627;28;20195;-76
2020/12/30 04:20:41;;;;;;;26.27;11.13;;;1.20;99.90;;;;;;5047451;28;20556;-76
2020/12/30 04:23:08;;;;;;;34.23;11.90;;;1.20;99.90;;;;;;5047106;28;20600;-76
2020/12/30 04:25:35;;;;;;;30.73;11.50;;;1.20;99.90;;;;;;5047251;28;20313;-76
2020/12/30 04:28:01;;;;;;;25.60;10.23;;;1.20;99.90;;;;;;5053188;28;20234;-76
2020/12/30 04:30:28;;;;;;;26.27;11.47;;;1.20;99.90;;;;;;5047524;28;20353;-76
2020/12/30 04:32:54;;;;;;;29.93;10.67;;;1.20;99.90;;;;;;5046913;28;20682;-76
2020/12/30 04:35:20;;;;;;;25.97;11.00;;;1.20;99.90;;;;;;5052527;28;20306;-76
2020/12/30 04:37:47;;;;;;;26.33;10.70;;;1.30;99.90;;;;;;5063496;28;20262;-76
2020/12/30 04:40:13;;;;;;;26.30;10.60;;;1.30;99.90;;;;;;5057619;28;20335;-76
2020/12/30 04:42:42;;;;;;;30.60;11.57;;;1.30;99.90;;;;;;5052391;28;20229;-76
2020/12/30 04:45:13;;;;;;;27.70;11.20;;;1.20;99.90;;;;;;5049197;28;20255;-76
2020/12/30 04:47:45;;;;;;;24.53;11.30;;;1.20;99.90;;;;;;5052091;28;20668;-76
2020/12/30 04:50:11;;;;;;;25.57;10.80;;;1.20;99.90;;;;;;5050978;28;20302;-76
2020/12/30 04:52:39;;;;;;;25.50;10.90;;;1.20;99.90;;;;;;5047220;28;20241;-75
2020/12/30 04:55:07;;;;;;;32.03;11.20;;;1.20;99.90;;;;;;5048755;28;20216;-74
2020/12/30 04:57:59;;;;;;;29.40;11.93;;;1.20;99.90;;;;;;5051408;28;20434;-74
2020/12/30 05:00:26;;;;;;;23.60;11.17;;;1.20;99.90;;;;;;5055112;28;20313;-74
2020/12/30 05:02:53;;;;;;;25.80;10.37;;;1.20;99.90;;;;;;5051481;28;20611;-74
2020/12/30 05:05:20;;;;;;;32.80;10.83;;;1.30;99.90;;;;;;5051547;28;20276;-75
2020/12/30 05:07:47;;;;;;;22.73;10.10;;;1.30;99.90;;;;;;5045018;28;20601;-74
2020/12/30 05:10:15;;;;;;;23.47;10.37;;;1.30;99.90;;;;;;5052459;28;20310;-74
2020/12/30 05:12:42;;;;;;;19.57;10.13;;;1.20;99.90;;;;;;5050662;28;20282;-75
2020/12/30 05:15:09;;;;;;;22.63;10.47;;;1.20;99.90;;;;;;5055042;28;20352;-75
2020/12/30 05:17:36;;;;;;;27.40;10.30;;;1.30;99.90;;;;;;5051794;28;20739;-76
2020/12/30 05:20:09;;;;;;;24.17;11.20;;;1.30;99.90;;;;;;5049092;28;20260;-74
2020/12/30 05:22:35;;;;;;;23.67;10.60;;;1.20;99.90;;;;;;5047445;28;20282;-75
2020/12/30 05:25:04;;;;;;;26.63;10.23;;;1.30;99.90;;;;;;5050886;28;20222;-75
2020/12/30 05:27:31;;;;;;;29.37;10.10;;;1.20;99.90;;;;;;5049787;28;20203;-75
2020/12/30 05:29:58;;;;;;;25.80;9.57;;;1.30;99.90;;;;;;5049337;28;20743;-75
2020/12/30 05:32:26;;;;;;;26.27;9.77;;;1.30;99.90;;;;;;5050887;28;20610;-75
2020/12/30 05:34:55;;;;;;;22.00;8.77;;;1.30;99.90;;;;;;5052211;28;20297;-75
2020/12/30 05:37:32;;;;;;;22.87;9.83;;;1.40;99.90;;;;;;5055276;28;20286;-75
2020/12/30 05:39:59;;;;;;;19.53;9.67;;;1.30;99.90;;;;;;5056882;28;20236;-75
2020/12/30 05:42:25;;;;;;;23.53;9.93;;;1.30;99.90;;;;;;5056239;28;20553;-75
2020/12/30 05:44:54;;;;;;;21.80;9.57;;;1.30;99.90;;;;;;5051420;28;20905;-75
2020/12/30 05:47:22;;;;;;;24.50;10.80;;;1.30;99.90;;;;;;5051556;28;20294;-75
2020/12/30 05:49:50;;;;;;;25.47;10.17;;;1.30;99.90;;;;;;5048770;28;20210;-75
2020/12/30 05:52:19;;;;;;;25.77;11.60;;;1.30;99.90;;;;;;5052906;28;20257;-74
2020/12/30 05:54:46;;;;;;;25.67;11.40;;;1.30;99.90;;;;;;5050960;28;20202;-75
2020/12/30 05:57:24;;;;;;;25.63;10.97;;;1.30;99.90;;;;;;5063857;28;20321;-81
2020/12/30 05:59:52;;;;;;;23.07;10.70;;;1.30;99.90;;;;;;5052053;28;20754;-75
2020/12/30 06:02:23;;;;;;;30.47;11.03;;;1.40;99.90;;;;;;5053018;28;20227;-74
2020/12/30 06:04:51;;;;;;;21.90;10.30;;;1.40;99.90;;;;;;5050235;28;20570;-75
2020/12/30 06:07:19;;;;;;;27.87;10.57;;;1.30;99.90;;;;;;5050298;28;20329;-74
2020/12/30 06:09:51;;;;;;;22.63;10.57;;;1.30;99.90;;;;;;5052285;28;20294;-74
2020/12/30 06:12:24;;;;;;;21.30;9.67;;;1.30;99.90;;;;;;5048406;28;20371;-75
2020/12/30 06:14:51;;;;;;;22.43;9.73;;;1.30;99.90;;;;;;5051067;28;20202;-74
2020/12/30 06:17:25;;;;;;;24.67;10.20;;;1.30;99.90;;;;;;5050655;28;20617;-75
2020/12/30 06:19:54;;;;;;;22.40;9.87;;;1.30;99.90;;;;;;5058626;28;20279;-74
2020/12/30 06:22:22;;;;;;;28.60;7.97;;;1.40;99.90;;;;;;5062023;28;20218;-75
2020/12/30 06:24:52;;;;;;;20.47;8.33;;;1.30;99.90;;;;;;5067446;28;20436;-75
2020/12/30 06:27:26;;;;;;;21.60;8.90;;;1.30;99.90;;;;;;5065470;28;20234;-74
2020/12/30 06:29:57;;;;;;;22.63;8.67;;;1.40;99.90;;;;;;5055199;28;20297;-75
2020/12/30 06:32:31;;;;;;;21.13;8.93;;;1.30;99.90;;;;;;5053811;28;20306;-75
2020/12/30 06:37:31;;;;;;;26.43;9.60;;;1.40;99.90;;;;;;5034443;28;20297;-71
2020/12/30 06:40:27;;;;;;;19.87;9.23;;;1.40;99.90;;;;;;5035391;28;20203;-70
2020/12/30 06:42:56;;;;;;;19.80;8.37;;;1.40;99.90;;;;;;5024334;28;20979;-70
2020/12/30 06:45:48;;;;;;;22.37;8.80;;;1.40;99.90;;;;;;5029598;28;20238;-71
2020/12/30 06:48:15;;;;;;;20.63;8.23;;;1.40;99.90;;;;;;5029856;28;20695;-70
2020/12/30 06:50:41;;;;;;;20.17;8.70;;;1.40;99.90;;;;;;5023926;28;20675;-69
2020/12/30 06:53:25;;;;;;;21.43;9.87;;;1.40;99.90;;;;;;5026701;28;20687;-71
2020/12/30 06:55:51;;;;;;;21.53;8.37;;;1.40;99.90;;;;;;5027725;28;20646;-70
2020/12/30 06:58:43;;;;;;;19.40;8.40;;;1.30;99.90;;;;;;5026138;28;20653;-69
2020/12/30 07:01:10;;;;;;;22.40;10.37;;;1.40;99.90;;;;;;5029958;28;20973;-71
2020/12/30 07:03:36;;;;;;;22.37;9.60;;;1.40;99.90;;;;;;5023049;28;20478;-71
2020/12/30 07:06:22;;;;;;;27.47;10.23;;;1.40;99.90;;;;;;5031055;28;20223;-71
2020/12/30 07:08:50;;;;;;;21.90;10.33;;;1.40;99.90;;;;;;5025612;28;20203;-71
2020/12/30 07:11:53;;;;;;;23.57;10.93;;;1.50;99.90;;;;;;5023988;28;20906;-70
2020/12/30 07:14:21;;;;;;;27.33;9.50;;;1.50;99.90;;;;;;5019217;28;20227;-70
2020/12/30 07:16:50;;;;;;;17.93;7.83;;;1.50;99.90;;;;;;5025062;28;20209;-70
2020/12/30 07:19:19;;;;;;;22.00;8.30;;;1.60;99.90;;;;;;5035921;28;20215;-71
2020/12/30 07:22:03;;;;;;;24.33;8.90;;;1.60;99.90;;;;;;5029397;28;20365;-71
2020/12/30 07:24:40;;;;;;;19.87;8.20;;;1.60;99.90;;;;;;5031994;28;20290;-71
2020/12/30 07:27:09;;;;;;;24.00;8.20;;;1.60;99.90;;;;;;5023536;28;20198;-71
2020/12/30 07:29:35;;;;;;;23.83;9.30;;;1.60;99.90;;;;;;5024587;28;20309;-69
2020/12/30 07:32:03;;;;;;;24.90;9.03;;;1.60;99.90;;;;;;5022585;28;20306;-71
2020/12/30 07:34:32;;;;;;;21.23;8.53;;;1.60;99.90;;;;;;5019756;28;20207;-71
2020/12/30 07:36:59;;;;;;;20.27;8.87;;;1.60;99.90;;;;;;5019829;28;20207;-70
2020/12/30 07:39:32;;;;;;;22.83;8.67;;;1.60;99.90;;;;;;5020334;28;20329;-71
2020/12/30 07:42:00;;;;;;;19.03;9.93;;;1.60;99.90;;;;;;5024909;28;20354;-71
2020/12/30 07:44:26;;;;;;;22.63;9.77;;;1.70;99.90;;;;;;5023086;28;20292;-69
2020/12/30 07:47:00;;;;;;;25.80;10.40;;;1.70;99.90;;;;;;5019097;28;20228;-71
2020/12/30 07:49:26;;;;;;;26.17;10.87;;;1.70;99.90;;;;;;5026296;28;20295;-71
2020/12/30 07:51:55;;;;;;;24.93;10.83;;;1.60;99.90;;;;;;5020479;28;20223;-71
2020/12/30 07:54:22;;;;;;;23.03;10.13;;;1.60;99.90;;;;;;5022299;28;20204;-70
2020/12/30 07:56:49;;;;;;;31.57;10.70;;;1.60;99.90;;;;;;5020983;28;20191;-70
2020/12/30 07:59:21;;;;;;;29.13;11.87;;;1.50;99.90;;;;;;5026133;28;20203;-71
2020/12/30 08:01:59;;;;;;;25.53;10.10;;;1.50;99.90;;;;;;5022093;28;20588;-71
2020/12/30 08:04:27;;;;;;;27.57;11.20;;;1.60;99.90;;;;;;5029291;28;20290;-72
2020/12/30 08:06:53;;;;;;;22.80;9.87;;;1.60;99.90;;;;;;5022778;28;20247;-72
2020/12/30 08:09:20;;;;;;;24.13;9.93;;;1.60;99.90;;;;;;5026145;28;20231;-71
2020/12/30 08:11:51;;;;;;;23.70;8.40;;;1.60;99.90;;;;;;5025451;28;20228;-72
2020/12/30 08:14:18;;;;;;;21.00;8.20;;;1.60;99.90;;;;;;5026644;28;20207;-70
2020/12/30 08:16:58;;;;;;;18.33;7.83;;;1.70;99.90;;;;;;5026850;28;20202;-72
2020/12/30 08:19:38;;;;;;;20.43;8.80;;;1.70;99.90;;;;;;5026807;28;20253;-71
2020/12/30 08:22:10;;;;;;;17.37;8.07;;;1.70;99.90;;;;;;5022760;28;20238;-71
2020/12/30 08:24:38;;;;;;;19.00;8.03;;;1.80;99.90;;;;;;5027573;28;20769;-71
2020/12/30 08:27:05;;;;;;;21.80;8.33;;;1.80;99.90;;;;;;5026078;28;20274;-71
2020/12/30 08:29:33;;;;;;;21.90;8.47;;;1.80;99.90;;;;;;5041840;28;20299;-70
2020/12/30 08:32:04;;;;;;;19.27;8.57;;;1.80;99.90;;;;;;5044809;28;20270;-71
2020/12/30 08:34:38;;;;;;;19.40;9.33;;;1.80;99.90;;;;;;5027790;28;20231;-71
2020/12/30 08:37:10;;;;;;;38.17;15.47;;;1.80;99.90;;;;;;5031477;28;20638;-70
2020/12/30 08:39:43;;;;;;;25.70;9.77;;;1.80;99.90;;;;;;5027269;28;20310;-70
2020/12/30 08:42:46;;;;;;;18.67;7.47;;;1.80;99.90;;;;;;5025194;28;20803;-71
2020/12/30 08:45:14;;;;;;;21.40;8.97;;;1.80;99.90;;;;;;5024892;28;20692;-70
2020/12/30 08:47:42;;;;;;;15.43;7.93;;;1.80;99.90;;;;;;5026416;28;20640;-71
2020/12/30 08:50:09;;;;;;;18.33;7.80;;;1.80;99.90;;;;;;5026653;28;20361;-70
2020/12/30 08:52:40;;;;;;;14.40;7.17;;;1.80;99.90;;;;;;5026667;28;20282;-71
2020/12/30 08:55:06;;;;;;;16.70;7.37;;;1.90;99.90;;;;;;5029281;28;20204;-71
2020/12/30 08:57:33;;;;;;;18.07;7.50;;;1.90;99.90;;;;;;5025661;28;20297;-70
2020/12/30 09:00:16;;;;;;;18.27;7.90;;;1.90;99.90;;;;;;5026726;28;20286;-70
2020/12/30 09:02:44;;;;;;;19.53;7.20;;;1.90;99.90;;;;;;5025186;28;20210;-71
2020/12/30 09:05:11;;;;;;;14.57;7.50;;;2.00;99.90;;;;;;5023970;28;20219;-71
2020/12/30 09:07:39;;;;;;;18.40;7.37;;;2.00;99.90;;;;;;5027496;28;20215;-71
2020/12/30 09:10:08;;;;;;;20.10;8.23;;;2.00;99.90;;;;;;5028422;28;20222;-71
2020/12/30 09:12:36;;;;;;;18.60;7.67;;;2.00;99.90;;;;;;5021393;28;20695;-71
2020/12/30 09:15:03;;;;;;;16.00;7.60;;;2.10;99.90;;;;;;5030424;28;20289;-71
2020/12/30 09:17:29;;;;;;;19.00;7.43;;;2.10;99.90;;;;;;5025634;28;20252;-71
2020/12/30 09:20:10;;;;;;;18.90;7.90;;;2.20;99.90;;;;;;5028870;28;20282;-71
2020/12/30 09:22:38;;;;;;;19.53;8.53;;;2.30;99.90;;;;;;5024651;28;20516;-71
2020/12/30 09:25:05;;;;;;;21.20;8.63;;;2.40;99.90;;;;;;5025649;28;20217;-71
2020/12/30 09:27:34;;;;;;;21.37;9.43;;;2.40;99.90;;;;;;5025131;28;20199;-71
2020/12/30 09:30:24;;;;;;;18.17;9.33;;;2.50;99.90;;;;;;5025677;28;20562;-71
2020/12/30 09:32:50;;;;;;;23.77;10.80;;;2.60;99.90;;;;;;5027298;28;20199;-71
2020/12/30 09:35:18;;;;;;;28.57;11.20;;;2.70;99.90;;;;;;5029750;28;20198;-71
2020/12/30 09:37:52;;;;;;;25.77;10.63;;;2.80;99.90;;;;;;5026844;28;21138;-71
2020/12/30 09:40:19;;;;;;;24.00;11.47;;;2.80;99.90;;;;;;5046788;28;20289;-71
2020/12/30 09:42:46;;;;;;;21.77;10.53;;;2.70;99.90;;;;;;5035736;28;20238;-71
2020/12/30 09:45:14;;;;;;;26.23;11.57;;;2.70;99.90;;;;;;5021636;28;22372;-70
2020/12/30 09:47:41;;;;;;;27.17;11.23;;;2.70;99.90;;;;;;5024129;28;20656;-71
2020/12/30 09:50:09;;;;;;;22.27;10.07;;;2.70;99.90;;;;;;5022611;28;20668;-71
2020/12/30 09:52:37;;;;;;;26.53;11.07;;;2.60;99.90;;;;;;5023741;28;20294;-71
2020/12/30 09:55:04;;;;;;;24.97;11.90;;;2.70;99.90;;;;;;5024142;28;21696;-70
2020/12/30 09:57:31;;;;;;;33.60;13.63;;;2.60;99.90;;;;;;5025204;28;20283;-70
2020/12/30 09:59:57;;;;;;;23.87;12.77;;;2.60;99.90;;;;;;5025551;28;20208;-70
2020/12/30 10:02:24;;;;;;;27.37;11.47;;;2.60;99.90;;;;;;5025489;28;20322;-71
2020/12/30 10:04:50;;;;;;;22.93;10.93;;;2.70;99.90;;;;;;5025617;28;20736;-71
2020/12/30 10:07:16;;;;;;;24.53;9.80;;;2.80;99.90;;;;;;5025737;28;20586;-71
2020/12/30 10:09:43;;;;;;;21.33;9.87;;;2.90;99.90;;;;;;5024370;28;20210;-70
2020/12/30 10:12:10;;;;;;;19.30;9.63;;;2.80;99.90;;;;;;5026018;28;20317;-71
2020/12/30 10:14:36;;;;;;;31.43;11.23;;;2.80;99.90;;;;;;5024272;28;20686;-71
2020/12/30 10:17:03;;;;;;;22.60;10.83;;;2.90;99.90;;;;;;5029081;28;20286;-71
2020/12/30 10:19:29;;;;;;;24.30;11.97;;;2.80;99.90;;;;;;5027063;28;20291;-71
2020/12/30 10:21:56;;;;;;;29.43;12.60;;;2.80;99.90;;;;;;5027745;28;20226;-71
2020/12/30 10:24:22;;;;;;;26.67;13.10;;;2.80;99.90;;;;;;5025778;28;20295;-71
2020/12/30 10:26:49;;;;;;;24.40;12.53;;;2.80;99.90;;;;;;5021319;28;20233;-71
2020/12/30 10:29:15;;;;;;;21.10;10.30;;;2.90;99.90;;;;;;5024843;28;20206;-70
2020/12/30 10:31:42;;;;;;;22.33;10.33;;;2.90;99.90;;;;;;5024571;28;20322;-71
2020/12/30 10:34:08;;;;;;;24.80;9.90;;;2.80;99.90;;;;;;5024326;28;20261;-71
2020/12/30 10:36:35;;;;;;;20.80;9.43;;;2.90;99.90;;;;;;5023055;28;20225;-71
2020/12/30 10:39:02;;;;;;;18.97;9.13;;;2.90;99.90;;;;;;5021931;28;20621;-70
2020/12/30 10:41:29;;;;;;;22.17;10.20;;;3.00;99.90;;;;;;5024469;28;20243;-71
2020/12/30 10:43:56;;;;;;;18.93;9.53;;;3.00;99.90;;;;;;5025727;28;20210;-70
2020/12/30 10:46:22;;;;;;;21.63;9.97;;;3.10;99.90;;;;;;5024435;28;20314;-71
2020/12/30 10:48:49;;;;;;;22.07;10.60;;;3.20;99.90;;;;;;5027635;28;20278;-70
2020/12/30 10:51:17;;;;;;;21.67;11.23;;;3.30;99.90;;;;;;5039676;28;20977;-69
2020/12/30 10:53:45;;;;;;;19.43;8.93;;;3.30;99.90;;;;;;5033659;28;20838;-71
2020/12/30 10:56:13;;;;;;;20.00;9.57;;;3.40;99.90;;;;;;5024180;28;20286;-71
2020/12/30 10:58:40;;;;;;;21.27;9.43;;;3.50;99.90;;;;;;5024747;28;20310;-71
2020/12/30 11:01:11;;;;;;;20.40;10.40;;;3.40;99.90;;;;;;5024898;28;20647;-71
2020/12/30 11:03:37;;;;;;;24.60;11.50;;;3.40;99.90;;;;;;5026255;28;20731;-71
2020/12/30 11:06:05;;;;;;;24.67;10.97;;;3.50;99.90;;;;;;5024565;28;20452;-71
2020/12/30 11:08:31;;;;;;;21.37;10.80;;;3.60;99.90;;;;;;5024262;28;20625;-71
2020/12/30 11:10:58;;;;;;;23.23;10.87;;;3.70;99.90;;;;;;5026557;28;20779;-70
2020/12/30 11:13:25;;;;;;;24.27;11.80;;;3.70;99.90;;;;;;5022095;28;20684;-70
2020/12/30 11:15:52;;;;;;;28.07;13.10;;;3.90;99.90;;;;;;5025228;28;20203;-70
2020/12/30 11:18:19;;;;;;;30.33;14.03;;;4.00;99.90;;;;;;5026580;28;20683;-69
2020/12/30 11:20:46;;;;;;;24.17;12.17;;;4.20;99.90;;;;;;5025415;28;20388;-70
2020/12/30 11:23:13;;;;;;;31.20;12.27;;;4.40;99.90;;;;;;5022552;28;20286;-71
2020/12/30 11:25:41;;;;;;;22.73;10.10;;;4.60;99.90;;;;;;5021860;28;20227;-71
2020/12/30 11:28:08;;;;;;;20.13;9.90;;;4.50;99.90;;;;;;5023041;28;20295;-71
2020/12/30 11:30:34;;;;;;;17.53;9.37;;;4.60;99.90;;;;;;5027099;28;20222;-71
2020/12/30 11:33:01;;;;;;;17.57;9.33;;;4.70;99.90;;;;;;5021222;28;20199;-71
2020/12/30 11:35:29;;;;;;;19.90;9.50;;;4.80;99.90;;;;;;5025279;28;20616;-71
2020/12/30 11:37:55;;;;;;;14.33;8.00;;;4.70;99.90;;;;;;5024413;28;20322;-71
2020/12/30 11:40:22;;;;;;;15.13;8.57;;;4.70;99.90;;;;;;5023883;28;20220;-71
2020/12/30 11:42:48;;;;;;;18.50;8.87;;;4.80;99.90;;;;;;5023647;28;20290;-71
2020/12/30 11:45:17;;;;;;;19.23;11.50;;;4.90;99.90;;;;;;5022957;28;20206;-71
2020/12/30 11:47:43;;;;;;;18.40;10.43;;;4.90;99.90;;;;;;5025000;28;20226;-72
2020/12/30 11:50:09;;;;;;;17.73;8.47;;;4.90;99.90;;;;;;5021806;28;20302;-72
2020/12/30 11:52:37;;;;;;;10.97;4.87;;;4.80;99.90;;;;;;5023394;28;20294;-71
2020/12/30 11:55:03;;;;;;;6.73;3.30;;;4.90;99.90;;;;;;5024430;28;20199;-71
2020/12/30 11:57:30;;;;;;;5.33;2.90;;;5.00;99.90;;;;;;5020201;28;20270;-72
2020/12/30 11:59:56;;;;;;;4.93;2.70;;;5.00;99.90;;;;;;5023132;28;20254;-72
2020/12/30 12:02:23;;;;;;;4.73;2.57;;;4.90;99.90;;;;;;5029532;28;20720;-72
2020/12/30 12:04:49;;;;;;;6.53;2.93;;;4.90;99.90;;;;;;5029010;28;20299;-71
2020/12/30 12:07:15;;;;;;;5.03;2.83;;;4.90;99.90;;;;;;5027207;28;20333;-72
2020/12/30 12:09:43;;;;;;;5.17;2.67;;;4.90;99.90;;;;;;5027590;28;20503;-73
2020/12/30 12:12:09;;;;;;;4.63;2.50;;;5.00;99.90;;;;;;5026110;28;20223;-72
2020/12/30 12:14:35;;;;;;;4.70;2.40;;;5.10;99.90;;;;;;5027656;28;20647;-71
2020/12/30 12:17:02;;;;;;;5.03;2.67;;;5.20;99.90;;;;;;5030673;28;20298;-71
2020/12/30 12:19:28;;;;;;;4.13;2.53;;;5.30;99.90;;;;;;5029665;28;20685;-72
2020/12/30 12:21:54;;;;;;;4.47;2.80;;;5.30;99.90;;;;;;5029022;28;20255;-72
2020/12/30 12:24:21;;;;;;;5.10;2.40;;;5.30;99.90;;;;;;5030593;28;20287;-73
2020/12/30 12:26:48;;;;;;;4.17;2.63;;;5.30;99.90;;;;;;5029402;28;20238;-72
2020/12/30 12:29:40;;;;;;;4.27;2.57;;;5.30;99.90;;;;;;5032189;28;20204;-72
2020/12/30 12:32:08;;;;;;;3.57;2.03;;;5.30;99.90;;;;;;5030047;28;20227;-71
2020/12/30 12:34:36;;;;;;;4.63;2.00;;;5.30;99.90;;;;;;5033070;28;20751;-72
2020/12/30 12:37:05;;;;;;;4.73;2.57;;;5.40;99.90;;;;;;5073461;23;20726;-75
2020/12/30 12:39:32;;;;;;;16.90;11.03;;;5.40;99.90;;;;;;5055279;28;20527;-75
2020/12/30 12:41:59;;;;;;;13.47;7.03;;;5.40;99.90;;;;;;5054858;28;20505;-75
2020/12/30 12:44:26;;;;;;;18.57;9.73;;;5.30;99.90;;;;;;5059587;28;20205;-76
2020/12/30 12:46:53;;;;;;;31.47;19.03;;;5.30;99.90;;;;;;5052571;28;20759;-75
2020/12/30 12:49:19;;;;;;;14.87;8.83;;;5.30;99.90;;;;;;5052259;28;20209;-76